Time;durP1;ratioP1;P1;durP2;ratioP2;P2;SDS_P1;SDS_P2;PMS_P1;PMS_P2;Temp;Humidity;BMP_temperature;BMP_pressure;BME280_temperature;BME280_humidity;BME280_pressure;Samples;Min_cycle;Max_cycle;Signal;HPM_P1;HPM_P2
2022/12/26 00:01:05;;;;;;;3.10;2.03;;;;;;;6.21;61.68;95115.63;4998322;28;20076;-63
2022/12/26 00:03:30;;;;;;;3.72;2.63;;;;;;;6.28;61.42;95113.97;4997162;28;20091;-64
2022/12/26 00:05:56;;;;;;;5.82;2.72;;;;;;;6.16;61.58;95115.28;5000395;28;20366;-63
2022/12/26 00:08:21;;;;;;;3.42;2.60;;;;;;;7.07;58.90;95117.16;5001212;28;20064;-63
2022/12/26 00:10:47;;;;;;;5.55;2.75;;;;;;;6.57;60.22;95106.59;5001542;28;20178;-64
2022/12/26 00:13:12;;;;;;;5.97;2.90;;;;;;;6.10;61.42;95111.47;5001145;28;20087;-64
2022/12/26 00:15:40;;;;;;;3.60;2.15;;;;;;;6.84;59.48;95099.31;5000643;28;20392;-64
2022/12/26 00:18:06;;;;;;;3.33;2.25;;;;;;;7.04;59.10;95101.59;5000909;28;20634;-64
2022/12/26 00:20:31;;;;;;;3.60;2.40;;;;;;;6.39;61.00;95112.81;5005736;28;20084;-63
2022/12/26 00:22:56;;;;;;;4.32;2.65;;;;;;;5.97;62.04;95117.22;5009062;28;20087;-64
2022/12/26 00:25:22;;;;;;;3.90;2.67;;;;;;;6.03;61.86;95099.91;4998765;28;20071;-64
2022/12/26 00:27:47;;;;;;;4.43;2.60;;;;;;;6.64;60.13;95099.66;5003428;28;20562;-63
2022/12/26 00:30:13;;;;;;;5.60;2.58;;;;;;;6.84;59.37;95099.31;5000458;28;20084;-64
2022/12/26 00:32:38;;;;;;;3.70;2.40;;;;;;;6.65;59.85;95096.00;5000105;28;20140;-63
2022/12/26 00:35:04;;;;;;;4.38;2.30;;;;;;;6.66;59.85;95105.59;5000866;28;20643;-63
2022/12/26 00:37:29;;;;;;;5.82;2.50;;;;;;;7.05;58.59;95103.25;5008789;28;20084;-64
2022/12/26 00:39:55;;;;;;;4.40;2.58;;;;;;;6.58;59.98;95126.75;5008372;28;20094;-64
2022/12/26 00:42:20;;;;;;;3.17;2.10;;;;;;;7.20;58.11;95104.22;5005946;28;20500;-64
2022/12/26 00:44:46;;;;;;;3.47;2.13;;;;;;;7.14;58.11;95102.22;5005899;28;20066;-63
2022/12/26 00:47:11;;;;;;;5.53;2.33;;;;;;;7.55;56.98;95111.88;5005780;28;20080;-64
2022/12/26 00:49:36;;;;;;;5.70;2.80;;;;;;;7.43;57.36;95116.72;5005895;28;20078;-63
2022/12/26 00:52:02;;;;;;;3.92;2.65;;;;;;;7.01;58.51;95108.88;5007983;28;20060;-63
2022/12/26 00:54:28;;;;;;;4.15;2.58;;;;;;;7.04;58.52;95114.84;5005707;28;20071;-63
2022/12/26 00:56:53;;;;;;;4.22;2.42;;;;;;;6.98;58.59;95103.94;5003616;28;20072;-64
2022/12/26 00:59:18;;;;;;;3.58;2.30;;;;;;;6.68;59.85;95108.06;5005716;28;20110;-64
2022/12/26 01:01:44;;;;;;;3.70;2.28;;;;;;;6.74;60.39;95118.81;5001760;28;20546;-63
2022/12/26 01:04:09;;;;;;;5.93;2.70;;;;;;;7.23;58.46;95116.28;5010513;28;20058;-63
2022/12/26 01:06:35;;;;;;;4.97;2.65;;;;;;;7.28;57.93;95112.13;5007906;28;20075;-64
2022/12/26 01:09:00;;;;;;;4.97;2.60;;;;;;;7.39;57.50;95110.13;5008998;28;20057;-64
2022/12/26 01:11:41;;;;;;;4.55;2.70;;;;;;;7.53;57.22;95105.94;5004258;28;20074;-64
2022/12/26 01:14:11;;;;;;;5.40;2.60;;;;;;;7.71;56.25;95103.03;5000410;28;20508;-64
2022/12/26 01:16:37;;;;;;;4.20;2.45;;;;;;;7.04;58.22;95102.41;5012111;28;20062;-64
2022/12/26 01:19:03;;;;;;;4.03;2.50;;;;;;;6.68;59.21;95113.38;5011594;28;20080;-64
2022/12/26 01:21:29;;;;;;;5.70;2.63;;;;;;;6.67;59.91;95122.31;5013087;28;20071;-64
2022/12/26 01:23:54;;;;;;;4.32;2.50;;;;;;;6.55;59.88;95122.63;5013580;28;20450;-63
2022/12/26 01:26:19;;;;;;;11.02;3.05;;;;;;;6.55;60.13;95120.00;5010835;28;20103;-64
2022/12/26 01:28:46;;;;;;;10.40;2.40;;;;;;;6.89;59.50;95120.81;5011105;28;20059;-63
2022/12/26 01:31:11;;;;;;;3.90;2.40;;;;;;;7.63;57.10;95113.69;5012049;28;20089;-63
2022/12/26 01:33:37;;;;;;;4.50;2.42;;;;;;;7.71;56.48;95118.94;5009925;28;20054;-64
2022/12/26 01:36:02;;;;;;;6.40;3.15;;;;;;;7.82;55.55;95128.34;5010773;28;20610;-64
2022/12/26 01:38:27;;;;;;;7.07;3.00;;;;;;;8.19;54.95;95128.66;5012069;28;20086;-64
2022/12/26 01:41:39;;;;;;;4.15;2.42;;;;;;;8.22;54.36;95133.63;5014727;28;20109;-63
2022/12/26 01:43:57;;;;;;;3.03;2.15;;;;;;;7.73;56.82;95143.47;5012688;28;20656;-64
2022/12/26 01:46:38;;;;;;;7.78;3.80;;;;;;;8.06;55.50;95145.13;5008159;28;20114;-63
2022/12/26 01:49:28;;;;;;;6.18;3.03;;;;;;;7.45;56.64;95154.44;5010841;28;20127;-63
2022/12/26 01:51:56;;;;;;;5.97;2.58;;;;;;;7.08;58.64;95161.16;5009030;28;20078;-64
2022/12/26 01:54:22;;;;;;;5.72;2.70;;;;;;;6.43;60.53;95147.72;5005551;28;20088;-64
2022/12/26 01:56:47;;;;;;;4.00;2.45;;;;;;;6.96;58.19;95153.56;5002686;28;20059;-64
2022/12/26 01:59:21;;;;;;;5.03;2.65;;;;;;;6.70;58.98;95157.19;5002613;28;20081;-64
2022/12/26 02:01:47;;;;;;;5.00;2.67;;;;;;;7.26;58.18;95151.22;5002628;28;20053;-64
2022/12/26 02:06:59;;;;;;;3.88;2.33;;;;;;;7.34;57.60;95142.41;5003476;28;20526;-63
2022/12/26 02:09:24;;;;;;;6.97;2.85;;;;;;;6.47;59.91;95139.28;5005749;28;20087;-63
2022/12/26 02:12:11;;;;;;;8.35;2.70;;;;;;;7.18;57.69;95140.63;5003578;28;20596;-64
2022/12/26 02:14:37;;;;;;;6.82;2.70;;;;;;;7.59;57.10;95149.47;5003347;28;20457;-63
2022/12/26 02:17:02;;;;;;;5.53;2.42;;;;;;;6.77;59.73;95147.59;5005666;28;20108;-63
2022/12/26 02:19:34;;;;;;;5.63;2.50;;;;;;;6.93;59.19;95158.38;5003704;28;20077;-63
2022/12/26 02:22:20;;;;;;;7.30;4.28;;;;;;;6.79;59.44;95146.59;5005007;28;20087;-64
2022/12/26 02:25:06;;;;;;;5.10;2.40;;;;;;;6.47;61.15;95139.28;5001326;28;20085;-64
2022/12/26 02:27:45;;;;;;;5.95;3.00;;;;;;;6.39;60.06;95144.56;5002187;28;20091;-64
2022/12/26 02:30:51;;;;;;;4.80;2.35;;;;;;;7.28;58.46;95151.03;5007841;28;20088;-64
2022/12/26 02:33:28;;;;;;;4.50;2.45;;;;;;;6.45;60.96;95156.31;4984478;28;20058;-63
2022/12/26 02:36:04;;;;;;;5.30;2.53;;;;;;;7.61;56.61;95152.75;5001212;28;20082;-64
2022/12/26 02:39:08;;;;;;;6.82;2.83;;;;;;;7.05;58.15;95166.78;5007614;28;20745;-63
2022/12/26 02:41:52;;;;;;;5.40;2.72;;;;;;;7.24;58.05;95162.97;5008834;28;20085;-63
2022/12/26 02:47:26;;;;;;;6.55;3.13;;;;;;;6.63;59.41;95169.41;4993193;28;20146;-64
2022/12/26 03:15:10;;;;;;;5.07;2.40;;;;;;;7.55;56.48;95156.91;5007322;28;20143;-64
2022/12/26 03:17:41;;;;;;;5.72;2.78;;;;;;;6.68;59.18;95145.94;4989502;28;20153;-63
2022/12/26 03:20:18;;;;;;;7.97;4.50;;;;;;;5.97;61.28;95144.50;5004611;28;20080;-64
2022/12/26 03:22:53;;;;;;;4.95;2.35;;;;;;;5.80;61.42;95142.75;4988053;28;20073;-63
2022/12/26 03:28:09;;;;;;;5.75;2.55;;;;;;;6.66;59.27;95131.25;5002855;28;20124;-63
2022/12/26 03:30:49;;;;;;;4.45;2.53;;;;;;;7.39;56.83;95129.47;5003329;28;20378;-64
2022/12/26 03:36:00;;;;;;;5.18;2.50;;;;;;;6.75;58.85;95136.38;5009960;28;20078;-64
2022/12/26 03:38:54;;;;;;;4.97;2.40;;;;;;;7.52;55.38;95136.06;4983810;28;20080;-64
2022/12/26 04:20:04;;;;;;;6.18;2.33;;;;;;;6.49;59.72;95165.59;4985947;28;20106;-63
2022/12/26 04:44:55;;;;;;;6.30;2.45;;;;;;;6.22;60.11;95167.50;5007863;28;20161;-63
2022/12/26 04:47:20;;;;;;;5.13;2.50;;;;;;;6.11;60.65;95161.53;5008655;28;20572;-63
2022/12/26 04:52:53;;;;;;;7.40;2.50;;;;;;;5.58;62.70;95160.84;5005114;28;20140;-63
2022/12/26 04:55:15;;;;;;;5.78;2.13;;;;;;;6.39;59.77;95157.78;5006142;28;20111;-63
2022/12/26 04:57:41;;;;;;;4.55;2.60;;;;;;;6.38;59.49;95150.84;5006191;28;20108;-64
2022/12/26 05:00:07;;;;;;;5.70;2.63;;;;;;;6.25;59.91;95131.00;5005318;28;20057;-64
2022/12/26 05:10:43;;;;;;;5.68;2.42;;;;;;;6.72;58.24;95183.47;5006480;28;20120;-64
2022/12/26 05:13:09;;;;;;;4.85;2.30;;;;;;;6.04;59.76;95181.66;5009236;28;20069;-63
2022/12/26 05:28:40;;;;;;;4.78;2.42;;;;;;;5.63;61.35;95170.91;5009963;28;20098;-64
2022/12/26 05:29:25;;;;;;;5.47;2.40;;;;;;;6.22;59.22;95168.31;5021284;28;20070;-64
2022/12/26 05:31:50;;;;;;;3.78;2.22;;;;;;;5.82;60.78;95186.53;5006068;28;20446;-63
2022/12/26 05:34:19;;;;;;;3.33;2.20;;;;;;;6.31;59.52;95163.06;5007869;28;20608;-63
2022/12/26 05:36:49;;;;;;;5.78;2.83;;;;;;;6.52;58.14;95154.69;5001441;28;20822;-64
2022/12/26 05:39:15;;;;;;;4.20;2.20;;;;;;;6.49;58.67;95149.72;5005458;28;20553;-63
2022/12/26 05:41:40;;;;;;;6.50;2.35;;;;;;;6.23;58.96;95163.88;5002915;28;20055;-64
2022/12/26 05:44:06;;;;;;;7.38;2.53;;;;;;;5.74;60.33;95165.34;5001273;28;20062;-63
2022/12/26 05:46:32;;;;;;;7.00;2.20;;;;;;;6.91;57.65;95160.34;4999770;28;20108;-63
2022/12/26 05:48:57;;;;;;;2.95;1.77;;;;;;;6.92;57.14;95168.09;5000088;28;20060;-64
2022/12/26 05:51:23;;;;;;;7.28;2.20;;;;;;;6.93;57.19;95174.25;4997895;28;20150;-64
2022/12/26 05:53:48;;;;;;;11.90;5.10;;;;;;;6.75;57.38;95154.88;5001390;28;20520;-64
2022/12/26 05:56:14;;;;;;;4.05;2.35;;;;;;;6.95;56.69;95166.94;5002113;28;20061;-64
2022/12/26 05:58:40;;;;;;;5.68;2.95;;;;;;;6.84;57.57;95153.03;4999700;28;20096;-63
2022/12/26 06:01:08;;;;;;;4.07;2.35;;;;;;;7.09;56.72;95157.50;5005905;28;20453;-64
2022/12/26 06:03:34;;;;;;;4.93;2.53;;;;;;;6.44;58.02;95165.22;4995935;28;20123;-63
2022/12/26 06:06:00;;;;;;;7.35;2.45;;;;;;;7.17;56.33;95164.63;5001274;28;20594;-64
2022/12/26 06:08:25;;;;;;;4.72;2.30;;;;;;;6.93;57.00;95161.81;5002914;28;20065;-64
2022/12/26 06:10:50;;;;;;;6.03;2.85;;;;;;;7.34;56.31;95155.63;5003839;28;20089;-64
2022/12/26 06:13:16;;;;;;;4.63;2.40;;;;;;;6.86;56.64;95166.94;5003126;28;20082;-63
2022/12/26 06:15:41;;;;;;;4.10;2.50;;;;;;;7.03;57.01;95169.59;5006454;28;20167;-64
2022/12/26 06:18:06;;;;;;;3.88;2.15;;;;;;;7.16;55.88;95171.72;5003929;28;20089;-63
2022/12/26 06:20:32;;;;;;;3.80;2.40;;;;;;;6.92;57.05;95173.41;5008099;28;20093;-64
2022/12/26 06:22:57;;;;;;;6.93;2.53;;;;;;;6.40;58.84;95167.38;4999317;28;20462;-64
2022/12/26 06:25:23;;;;;;;6.85;2.40;;;;;;;6.75;58.25;95157.53;4999693;28;20078;-64
2022/12/26 06:27:48;;;;;;;6.55;2.40;;;;;;;7.13;56.45;95172.91;5010899;28;20084;-64
2022/12/26 06:30:13;;;;;;;4.95;2.22;;;;;;;6.71;58.04;95165.97;5005644;28;20582;-63
2022/12/26 06:32:39;;;;;;;6.72;2.60;;;;;;;6.47;58.16;95168.38;5006141;28;20060;-63
2022/12/26 06:35:05;;;;;;;5.15;2.70;;;;;;;6.68;58.02;95158.34;5000114;28;20102;-64
2022/12/26 06:37:31;;;;;;;6.43;2.20;;;;;;;7.24;56.51;95163.78;5000262;28;20066;-64
2022/12/26 06:39:57;;;;;;;6.78;3.70;;;;;;;7.10;57.01;95167.94;5000200;28;20393;-63
2022/12/26 06:42:22;;;;;;;4.25;2.08;;;;;;;7.50;55.81;95161.91;5004199;28;20110;-64
2022/12/26 06:44:48;;;;;;;5.70;2.60;;;;;;;6.83;57.67;95166.47;5000241;28;20074;-63
2022/12/26 06:47:13;;;;;;;6.60;3.53;;;;;;;6.45;59.45;95165.06;5003490;28;20444;-64
2022/12/26 06:49:38;;;;;;;4.88;2.40;;;;;;;6.79;58.50;95165.13;5003690;28;20058;-63
2022/12/26 06:52:04;;;;;;;6.15;2.40;;;;;;;7.13;57.53;95172.91;5004914;28;20059;-64
2022/12/26 06:54:29;;;;;;;3.50;2.17;;;;;;;6.53;60.18;95166.09;5002825;28;20449;-63
2022/12/26 06:56:55;;;;;;;5.85;2.40;;;;;;;5.92;60.84;95172.38;5006082;28;20112;-63
2022/12/26 06:59:20;;;;;;;5.78;2.47;;;;;;;5.36;62.99;95181.50;5002575;28;20107;-63
2022/12/26 07:01:45;;;;;;;8.95;4.60;;;;;;;6.37;60.16;95168.50;5005605;28;20065;-63
2022/12/26 07:04:11;;;;;;;6.55;2.58;;;;;;;5.02;63.50;95183.06;5002027;28;20250;-63
2022/12/26 07:06:37;;;;;;;3.25;2.03;;;;;;;6.26;60.81;95174.13;5006068;28;20108;-63
2022/12/26 07:09:04;;;;;;;4.72;2.40;;;;;;;5.90;62.23;95182.25;5006340;28;20338;-63
2022/12/26 07:11:32;;;;;;;4.13;1.80;;;;;;;5.99;61.67;95183.97;5007980;28;20090;-63
2022/12/26 07:13:57;;;;;;;5.80;3.27;;;;;;;6.55;59.97;95177.34;5003702;28;20102;-63
2022/12/26 07:16:23;;;;;;;5.88;2.47;;;;;;;6.28;60.22;95184.53;5009686;28;20057;-63
2022/12/26 07:18:51;;;;;;;4.25;2.15;;;;;;;5.47;63.21;95197.09;5002145;28;20081;-64
2022/12/26 07:21:17;;;;;;;5.10;2.60;;;;;;;5.51;62.51;95189.66;5007695;28;20527;-63
2022/12/26 07:23:42;;;;;;;5.90;2.42;;;;;;;5.43;63.60;95179.91;5003176;28;20090;-63
2022/12/26 07:26:08;;;;;;;3.63;1.90;;;;;;;6.09;61.32;95175.91;4999781;28;20097;-63
2022/12/26 07:28:33;;;;;;;3.42;2.25;;;;;;;5.70;62.60;95186.00;5004920;28;20561;-63
2022/12/26 07:30:59;;;;;;;3.67;2.20;;;;;;;6.07;61.12;95185.78;5005315;28;20532;-64
2022/12/26 07:33:25;;;;;;;4.55;2.42;;;;;;;5.67;62.55;95188.94;5001631;28;20069;-63
2022/12/26 07:35:51;;;;;;;4.20;2.25;;;;;;;5.91;61.43;95202.44;5003597;28;20080;-63
2022/12/26 07:38:16;;;;;;;3.20;1.67;;;;;;;5.88;61.37;95205.38;5002818;28;20550;-63
2022/12/26 07:40:42;;;;;;;7.43;1.90;;;;;;;4.88;64.91;95208.19;5004640;28;20329;-64
2022/12/26 07:43:07;;;;;;;2.25;1.95;;;;;;;5.61;62.32;95216.81;5005733;28;20591;-64
2022/12/26 07:45:32;;;;;;;3.50;2.00;;;;;;;5.73;61.97;95217.38;5003970;28;20087;-63
2022/12/26 07:47:58;;;;;;;5.10;2.20;;;;;;;5.03;64.22;95212.94;5004088;28;20329;-63
2022/12/26 07:50:24;;;;;;;5.38;1.92;;;;;;;5.81;61.56;95207.81;5007251;28;20179;-63
2022/12/26 07:52:49;;;;;;;5.00;2.20;;;;;;;5.61;61.87;95218.59;5008347;28;20106;-63
2022/12/26 07:55:15;;;;;;;5.68;2.78;;;;;;;6.36;59.48;95213.66;5004006;28;20572;-63
2022/12/26 07:57:40;;;;;;;2.50;1.75;;;;;;;6.13;59.89;95222.16;5004203;28;20067;-63
2022/12/26 08:00:06;;;;;;;3.88;2.33;;;;;;;5.98;59.98;95216.66;5002452;28;20094;-63
2022/12/26 08:02:31;;;;;;;3.58;2.00;;;;;;;6.02;60.19;95214.53;5003111;28;20357;-63
2022/12/26 08:04:57;;;;;;;5.38;1.80;;;;;;;5.94;60.54;95213.50;5002882;28;20653;-63
2022/12/26 08:07:22;;;;;;;2.45;1.88;;;;;;;4.64;64.94;95217.56;5001225;28;20553;-64
2022/12/26 08:09:48;;;;;;;4.68;2.83;;;;;;;5.57;61.83;95218.09;5000633;28;20397;-63
2022/12/26 08:12:13;;;;;;;3.70;1.80;;;;;;;5.71;60.71;95229.91;5001018;28;20068;-64
2022/12/26 08:14:39;;;;;;;2.92;1.90;;;;;;;5.60;61.41;95225.72;5001769;28;20581;-63
2022/12/26 08:17:05;;;;;;;2.30;1.83;;;;;;;5.17;62.37;95228.22;5017699;28;20109;-63
2022/12/26 08:19:30;;;;;;;3.10;1.80;;;;;;;4.63;63.88;95233.53;5010621;28;20139;-63
2022/12/26 08:21:56;;;;;;;1.90;1.42;;;;;;;5.25;62.65;95234.56;5007081;28;20068;-63
2022/12/26 08:24:21;;;;;;;2.35;1.67;;;;;;;5.13;63.17;95226.88;5003557;28;20332;-64
2022/12/26 08:26:47;;;;;;;3.95;1.77;;;;;;;5.75;60.98;95227.78;5007785;28;20104;-63
2022/12/26 08:29:12;;;;;;;3.70;2.00;;;;;;;5.67;60.70;95247.06;5000799;28;20440;-63
2022/12/26 08:31:37;;;;;;;3.72;2.00;;;;;;;4.22;64.75;95274.25;5013918;28;20091;-63
2022/12/26 08:34:03;;;;;;;1.73;1.55;;;;;;;4.99;63.05;95259.09;5001681;28;20561;-64
2022/12/26 08:36:28;;;;;;;3.33;1.80;;;;;;;5.50;61.48;95259.31;4997897;28;20463;-63
2022/12/26 08:38:53;;;;;;;4.35;1.65;;;;;;;6.02;59.05;95267.38;5002977;28;20100;-63
2022/12/26 08:41:19;;;;;;;3.63;1.42;;;;;;;5.96;59.32;95290.78;5007371;28;20405;-63
2022/12/26 08:43:49;;;;;;;3.70;1.92;;;;;;;5.03;62.14;95307.94;5011970;28;20458;-63
2022/12/26 08:46:14;;;;;;;4.03;1.85;;;;;;;5.33;60.64;95290.06;5004401;28;20103;-64
2022/12/26 08:48:39;;;;;;;3.28;1.40;;;;;;;4.98;62.52;95282.00;5006524;28;20096;-63
2022/12/26 08:51:07;;;;;;;2.58;1.58;;;;;;;5.21;62.00;95286.84;5007795;28;20124;-64
2022/12/26 08:53:34;;;;;;;1.75;1.52;;;;;;;6.07;59.37;95280.94;5011773;28;20074;-63
2022/12/26 08:56:00;;;;;;;5.95;1.70;;;;;;;6.42;57.65;95276.47;5007032;28;20087;-64
2022/12/26 08:58:25;;;;;;;1.92;1.38;;;;;;;5.01;61.56;95288.78;5002112;28;20093;-63
2022/12/26 09:00:51;;;;;;;1.85;1.58;;;;;;;5.73;59.72;95275.50;4998100;28;20077;-63
2022/12/26 09:03:16;;;;;;;2.45;1.70;;;;;;;5.48;60.05;95269.22;4999523;28;20093;-63
2022/12/26 09:05:42;;;;;;;1.42;1.30;;;;;;;6.02;58.37;95246.25;4999055;28;20084;-63
2022/12/26 09:08:07;;;;;;;4.30;1.90;;;;;;;6.40;57.24;95270.53;5005391;28;20071;-63
2022/12/26 09:10:32;;;;;;;2.22;1.30;;;;;;;5.97;58.34;95283.69;5003656;28;20096;-64
2022/12/26 09:12:58;;;;;;;2.15;1.60;;;;;;;5.96;58.21;95285.50;5006852;28;20076;-63
2022/12/26 09:15:23;;;;;;;3.03;1.80;;;;;;;6.38;57.71;95314.78;5008038;28;20481;-64
2022/12/26 09:17:49;;;;;;;4.32;1.85;;;;;;;5.65;59.40;95319.50;5002824;28;20073;-63
2022/12/26 09:20:14;;;;;;;2.05;1.70;;;;;;;6.52;56.70;95329.25;5005782;28;20062;-63
2022/12/26 09:22:52;;;;;;;1.83;1.55;;;;;;;6.94;55.64;95316.16;5003283;28;20085;-64
2022/12/26 09:25:18;;;;;;;1.20;1.10;;;;;;;6.90;55.77;95323.56;5008570;28;20563;-64
2022/12/26 09:27:44;;;;;;;2.88;1.33;;;;;;;6.85;55.39;95325.88;5011575;28;20119;-64
2022/12/26 09:30:09;;;;;;;4.07;1.48;;;;;;;6.56;55.24;95335.06;5015363;28;20083;-63
2022/12/26 09:32:35;;;;;;;3.22;1.35;;;;;;;6.69;55.31;95335.44;5009906;28;20142;-64
2022/12/26 09:35:01;;;;;;;2.75;1.33;;;;;;;6.72;54.94;95336.94;5011875;28;20083;-64
2022/12/26 09:37:26;;;;;;;1.23;1.13;;;;;;;7.44;53.45;95332.09;5012569;28;20083;-64
2022/12/26 09:39:51;;;;;;;2.22;1.15;;;;;;;7.29;54.00;95330.09;5013056;28;20108;-64
2022/12/26 09:42:41;;;;;;;4.35;2.80;;;;;;;7.22;53.94;95337.03;5013074;28;20096;-63
2022/12/26 09:45:16;;;;;;;3.53;1.27;;;;;;;6.72;55.49;95351.00;5006463;28;20134;-64
2022/12/26 09:48:01;;;;;;;1.20;0.85;;;;;;;6.95;55.14;95358.34;5006395;28;20578;-63
2022/12/26 09:50:28;;;;;;;1.65;0.88;;;;;;;6.47;56.04;95364.06;5002021;28;20095;-63
2022/12/26 09:53:04;;;;;;;2.17;1.55;;;;;;;7.03;54.99;95354.88;5002694;28;20155;-63
2022/12/26 09:55:53;;;;;;;1.83;1.33;;;;;;;7.31;54.15;95348.47;4986821;28;20559;-63
2022/12/26 09:58:28;;;;;;;2.78;1.63;;;;;;;6.58;56.06;95351.59;4998549;28;20098;-64
2022/12/26 10:01:03;;;;;;;1.85;1.33;;;;;;;5.61;58.75;95351.50;5003031;28;20072;-64
2022/12/26 10:03:28;;;;;;;2.42;1.40;;;;;;;5.69;58.52;95340.19;5004421;28;20155;-63
2022/12/26 10:06:19;;;;;;;2.92;1.42;;;;;;;5.97;57.30;95355.88;5003542;28;20076;-63
2022/12/26 10:09:04;;;;;;;2.63;1.60;;;;;;;6.30;58.32;95327.97;4998849;28;20587;-63
2022/12/26 10:11:41;;;;;;;1.38;1.27;;;;;;;7.01;55.83;95341.78;5007102;28;20614;-63
2022/12/26 10:14:24;;;;;;;4.65;1.92;;;;;;;6.47;56.87;95344.75;5011227;28;20190;-64
2022/12/26 10:16:58;;;;;;;2.47;1.80;;;;;;;6.29;58.60;95337.72;5004641;28;20413;-63
2022/12/26 10:19:53;;;;;;;3.88;2.08;;;;;;;7.07;56.41;95340.31;5003856;28;20087;-64
2022/12/26 10:22:18;;;;;;;3.80;2.08;;;;;;;5.55;59.46;95341.53;5004337;28;20178;-63
2022/12/26 10:24:44;;;;;;;2.27;1.57;;;;;;;6.38;58.08;95330.66;5007470;28;20509;-63
2022/12/26 10:27:15;;;;;;;5.28;1.70;;;;;;;6.67;56.84;95339.22;5000897;28;20600;-64
2022/12/26 10:30:07;;;;;;;4.38;1.60;;;;;;;6.79;56.97;95343.22;5003954;28;20097;-64
2022/12/26 10:32:38;;;;;;;1.67;1.58;;;;;;;7.59;54.87;95326.97;5003927;28;20092;-63
2022/12/26 10:35:22;;;;;;;5.35;1.70;;;;;;;7.58;54.81;95338.56;5001517;28;20091;-63
2022/12/26 10:37:49;;;;;;;1.88;1.60;;;;;;;6.31;58.89;95341.03;5002465;28;20083;-63
2022/12/26 10:40:22;;;;;;;4.82;1.80;;;;;;;6.86;56.95;95338.13;5005056;28;20588;-64
2022/12/26 10:42:55;;;;;;;2.42;1.92;;;;;;;7.31;56.16;95336.03;5004206;28;20192;-64
2022/12/26 10:45:47;;;;;;;2.05;1.55;;;;;;;7.67;54.66;95340.19;5019888;28;20100;-64
2022/12/26 10:48:13;;;;;;;4.05;2.50;;;;;;;6.71;56.82;95352.00;5008820;28;20100;-64
2022/12/26 10:50:39;;;;;;;4.00;2.20;;;;;;;5.38;62.73;95345.03;5016145;28;20146;-63
2022/12/26 10:53:05;;;;;;;3.60;2.30;;;;;;;6.01;59.69;95331.81;4998948;28;20578;-63
2022/12/26 10:55:32;;;;;;;2.15;1.60;;;;;;;6.68;57.25;95354.94;5014502;28;20090;-63
2022/12/26 10:58:16;;;;;;;3.13;1.60;;;;;;;6.36;57.87;95351.16;5011820;28;20738;-63
2022/12/26 11:00:42;;;;;;;4.53;1.80;;;;;;;6.41;57.76;95338.28;5001290;28;20050;-64
2022/12/26 11:03:14;;;;;;;2.22;1.63;;;;;;;6.52;58.39;95341.66;4993439;28;20101;-64
2022/12/26 11:05:51;;;;;;;2.08;1.67;;;;;;;6.59;57.22;95334.72;5000614;28;20083;-64
2022/12/26 11:08:22;;;;;;;1.75;1.15;;;;;;;7.35;55.10;95339.22;5003834;28;20427;-64
2022/12/26 11:11:06;;;;;;;1.67;1.40;;;;;;;7.32;55.42;95343.03;5006296;28;20192;-64
2022/12/26 11:13:38;;;;;;;1.55;1.20;;;;;;;6.83;56.18;95341.91;5008457;28;20151;-64
2022/12/26 11:16:03;;;;;;;1.38;1.20;;;;;;;7.02;54.93;95345.28;5000067;28;20637;-65
2022/12/26 11:18:48;;;;;;;3.25;1.52;;;;;;;7.46;54.11;95349.47;5000615;28;20093;-64
2022/12/26 11:21:17;;;;;;;2.22;1.60;;;;;;;7.47;54.87;95345.84;4998455;28;20091;-65
2022/12/26 11:23:45;;;;;;;1.83;1.52;;;;;;;7.43;54.78;95355.09;5000963;28;20095;-65
2022/12/26 11:26:29;;;;;;;;;;;;;;;7.60;52.54;95366.53;4999309;28;20091;-65
2022/12/26 11:29:14;;;;;;;3.63;1.35;;;;;;;6.46;54.79;95364.25;5003505;28;20384;-64
2022/12/26 11:31:42;;;;;;;3.88;1.30;;;;;;;5.86;53.29;95350.84;5007374;28;20180;-64
2022/12/26 11:34:16;;;;;;;2.33;1.17;;;;;;;6.23;53.33;95354.22;5006986;28;20101;-65
2022/12/26 11:36:45;;;;;;;2.95;1.25;;;;;;;5.84;53.65;95358.94;5011270;28;20080;-64
2022/12/26 11:39:26;;;;;;;;;;;;;;;4.77;56.64;95371.97;5006952;28;20090;-64
2022/12/26 11:41:52;;;;;;;2.60;1.52;;;;;;;4.89;56.02;95377.84;5003034;28;20104;-64
2022/12/26 11:44:30;;;;;;;1.25;1.10;;;;;;;5.16;56.42;95360.34;5000842;28;20084;-64
2022/12/26 11:47:12;;;;;;;1.20;0.70;;;;;;;4.90;57.11;95363.69;4999810;28;20299;-65
2022/12/26 11:50:04;;;;;;;2.13;1.42;;;;;;;4.77;56.27;95370.16;5001384;28;20066;-65
2022/12/26 11:52:36;;;;;;;1.90;0.90;;;;;;;5.30;55.59;95345.78;5003208;28;20699;-64
2022/12/26 11:55:21;;;;;;;3.97;1.27;;;;;;;5.02;56.84;95369.56;4998779;28;20097;-64
2022/12/26 11:58:08;;;;;;;1.40;0.70;;;;;;;5.27;55.75;95354.03;4997133;28;20085;-65
2022/12/26 12:00:38;;;;;;;1.45;1.15;;;;;;;5.02;56.09;95351.09;4998591;28;20226;-65
2022/12/26 12:03:10;;;;;;;1.13;0.82;;;;;;;5.20;55.79;95344.06;5002159;28;20124;-65
2022/12/26 12:05:47;;;;;;;1.05;0.80;;;;;;;5.22;55.60;95330.72;4989382;28;20095;-64
2022/12/26 12:08:22;;;;;;;0.98;0.82;;;;;;;5.57;54.97;95328.19;4994874;28;20074;-64
2022/12/26 12:11:15;;;;;;;1.55;1.05;;;;;;;5.72;54.34;95318.72;5003109;28;20091;-64
2022/12/26 12:14:02;;;;;;;2.42;1.50;;;;;;;5.91;53.63;95324.78;5000772;28;20072;-64
2022/12/26 12:16:55;;;;;;;1.38;1.00;;;;;;;6.37;52.11;95327.16;4999280;28;20083;-65
2022/12/26 12:19:36;;;;;;;2.47;1.42;;;;;;;5.17;55.16;95319.78;5004143;28;20091;-64
2022/12/26 12:22:07;;;;;;;1.67;1.20;;;;;;;6.20;52.06;95318.34;5002707;28;20120;-64
2022/12/26 12:24:33;;;;;;;2.38;1.35;;;;;;;5.98;52.11;95309.13;5001937;28;20073;-65
2022/12/26 12:27:13;;;;;;;1.90;1.30;;;;;;;5.66;52.12;95318.53;4999686;28;20135;-64
2022/12/26 12:29:56;;;;;;;2.90;1.10;;;;;;;5.38;52.17;95310.72;4999819;28;20127;-66
2022/12/26 12:32:51;;;;;;;4.85;1.15;;;;;;;5.12;52.18;95330.78;5002080;28;20834;-65
2022/12/26 12:35:35;;;;;;;2.00;0.88;;;;;;;5.05;54.36;95316.50;5003230;28;20141;-65
2022/12/26 12:38:20;;;;;;;0.95;0.70;;;;;;;5.07;53.92;95311.94;5002385;28;20125;-65
2022/12/26 12:41:10;;;;;;;3.03;1.15;;;;;;;5.12;53.03;95320.25;4999661;28;20509;-64
2022/12/26 12:43:53;;;;;;;1.00;0.80;;;;;;;4.89;52.95;95328.56;5001649;28;20409;-65
2022/12/26 12:46:30;;;;;;;0.75;0.57;;;;;;;5.15;52.92;95319.94;5000908;28;20124;-64
2022/12/26 12:48:55;;;;;;;1.23;1.00;;;;;;;5.28;52.33;95316.09;5006113;28;20072;-65
2022/12/26 12:51:49;;;;;;;4.83;1.20;;;;;;;5.11;52.91;95318.59;4999374;28;20086;-66
2022/12/26 12:54:54;;;;;;;1.27;1.10;;;;;;;5.60;51.98;95306.75;4996801;28;20733;-65
2022/12/26 12:57:38;;;;;;;7.45;1.23;;;;;;;5.60;51.29;95309.41;5016402;28;20135;-65
2022/12/26 13:00:09;;;;;;;1.25;0.82;;;;;;;5.29;52.54;95312.47;5001116;28;20112;-65
2022/12/26 13:02:37;;;;;;;2.75;1.13;;;;;;;4.21;59.26;95325.31;5003314;28;20272;-64
2022/12/26 13:05:24;;;;;;;3.72;1.35;;;;;;;2.76;64.08;95343.59;5007010;28;20074;-65
2022/12/26 13:08:21;;;;;;;6.20;1.30;;;;;;;2.14;68.59;95326.97;5007872;28;20116;-65
2022/12/26 13:10:54;;;;;;;3.10;1.15;;;;;;;1.93;71.25;95327.00;5005913;28;20115;-65
2022/12/26 13:13:36;;;;;;;1.63;0.73;;;;;;;2.20;70.77;95330.84;5006812;28;20080;-65
2022/12/26 13:16:16;;;;;;;2.83;0.85;;;;;;;2.79;65.14;95324.91;4993845;28;20189;-65
2022/12/26 13:18:56;;;;;;;0.40;0.40;;;;;;;2.57;68.93;95328.59;5006414;28;20190;-65
2022/12/26 13:21:21;;;;;;;1.65;0.93;;;;;;;2.78;67.19;95341.66;5001701;28;20262;-64
2022/12/26 13:24:24;;;;;;;3.55;1.25;;;;;;;2.85;66.48;95344.56;5009212;28;20657;-65
2022/12/26 13:27:18;;;;;;;3.05;1.25;;;;;;;1.68;72.07;95354.50;5007221;28;20092;-64
2022/12/26 13:29:45;;;;;;;2.17;1.08;;;;;;;0.94;74.83;95349.09;5006377;28;20324;-65
2022/12/26 13:32:24;;;;;;;3.35;0.90;;;;;;;1.02;75.41;95351.91;5013459;28;20077;-64
2022/12/26 13:34:51;;;;;;;1.20;0.70;;;;;;;1.04;75.98;95352.63;5019134;28;20669;-65
2022/12/26 13:37:38;;;;;;;1.63;0.93;;;;;;;1.79;73.53;95345.72;5008910;28;20129;-64
2022/12/26 13:40:12;;;;;;;1.35;0.90;;;;;;;1.53;73.25;95340.84;5007331;28;20666;-65
2022/12/26 13:45:50;;;;;;;1.35;0.75;;;;;;;2.32;70.66;95325.50;5009626;28;20146;-65
2022/12/26 13:48:16;;;;;;;1.77;0.73;;;;;;;2.42;69.69;95307.16;5004732;28;20073;-64
2022/12/26 13:51:00;;;;;;;0.80;0.80;;;;;;;2.35;69.82;95320.81;5012331;28;20144;-65
2022/12/26 13:53:25;;;;;;;0.52;0.52;;;;;;;2.90;68.33;95322.16;5011704;28;20331;-64
2022/12/26 13:55:53;;;;;;;2.47;1.07;;;;;;;3.26;65.43;95313.72;5004940;28;20629;-64
2022/12/26 13:58:31;;;;;;;0.80;0.80;;;;;;;3.24;66.73;95320.09;5017952;28;20433;-64
2022/12/26 14:01:06;;;;;;;0.55;0.40;;;;;;;3.12;67.66;95322.03;5009903;28;20083;-64
2022/12/26 14:03:35;;;;;;;2.10;1.05;;;;;;;2.97;67.86;95330.34;5003810;28;20504;-64